Time;durP1;ratioP1;P1;durP2;ratioP2;P2;SDS_P1;SDS_P2;PMS_P1;PMS_P2;Temp;Humidity;BMP_temperature;BMP_pressure;BME280_temperature;BME280_humidity;BME280_pressure;Samples;Min_cycle;Max_cycle;Signal;HPM_P1;HPM_P2
2021/10/26 04:02:39;;;;;;;16.83;14.40;;;9.80;99.90;;;;;;6269140;22;20501;-69
2021/10/26 04:05:14;;;;;;;17.67;15.73;;;9.80;99.90;;;;;;6270397;23;20373;-72
2021/10/26 04:07:46;;;;;;;17.33;15.30;;;9.80;99.90;;;;;;6265617;23;20402;-71
2021/10/26 04:10:16;;;;;;;19.57;15.97;;;9.80;99.90;;;;;;6267746;22;20894;-71
2021/10/26 04:12:43;;;;;;;18.40;14.87;;;9.80;99.90;;;;;;6272508;23;20399;-72
2021/10/26 04:15:10;;;;;;;18.73;15.67;;;9.70;99.90;;;;;;6271899;23;20391;-70
2021/10/26 04:17:38;;;;;;;21.63;16.70;;;9.70;99.90;;;;;;6253483;23;20411;-71
2021/10/26 04:20:05;;;;;;;17.73;15.47;;;9.80;99.90;;;;;;6251558;23;20922;-71
2021/10/26 04:22:32;;;;;;;17.67;15.33;;;9.80;99.90;;;;;;6252950;22;20448;-70
2021/10/26 04:24:59;;;;;;;20.73;15.17;;;9.70;99.90;;;;;;6252216;23;20419;-69
2021/10/26 04:27:26;;;;;;;18.93;16.07;;;9.70;99.90;;;;;;6251934;23;20410;-70
2021/10/26 04:29:53;;;;;;;18.87;16.87;;;9.70;99.90;;;;;;6267710;23;20398;-70
2021/10/26 04:32:19;;;;;;;18.27;16.33;;;9.70;99.90;;;;;;6254340;22;20439;-71
2021/10/26 04:34:49;;;;;;;16.50;14.70;;;9.70;99.90;;;;;;6260466;23;20485;-70
2021/10/26 04:37:15;;;;;;;20.60;15.27;;;9.80;99.90;;;;;;6264741;23;20466;-70
2021/10/26 04:39:42;;;;;;;20.40;16.50;;;9.70;99.90;;;;;;6260917;23;20413;-71
2021/10/26 04:42:09;;;;;;;19.43;16.20;;;9.70;99.90;;;;;;6253687;22;20433;-70
2021/10/26 04:44:36;;;;;;;19.17;17.10;;;9.70;99.90;;;;;;6252406;23;20419;-70
2021/10/26 04:47:03;;;;;;;19.63;16.37;;;9.70;99.90;;;;;;6250046;23;20411;-72
2021/10/26 04:49:30;;;;;;;18.33;16.40;;;9.70;99.90;;;;;;6250056;23;20770;-70
2021/10/26 04:51:58;;;;;;;20.03;15.50;;;9.70;99.90;;;;;;6251504;22;20733;-70
2021/10/26 04:54:25;;;;;;;23.57;16.97;;;9.70;99.90;;;;;;6249951;23;20411;-70
2021/10/26 04:56:51;;;;;;;19.20;17.27;;;9.70;99.90;;;;;;6250567;23;20419;-72
2021/10/26 04:59:18;;;;;;;18.40;16.40;;;9.70;99.90;;;;;;6250474;23;20411;-69
2021/10/26 05:01:45;;;;;;;17.20;15.50;;;9.70;99.90;;;;;;6249785;22;20770;-71
2021/10/26 05:04:12;;;;;;;17.83;16.00;;;9.80;99.90;;;;;;6252028;23;20422;-71
2021/10/26 05:06:38;;;;;;;19.97;17.00;;;9.80;99.90;;;;;;6251591;23;20720;-70
2021/10/26 05:09:07;;;;;;;18.40;16.07;;;9.80;99.90;;;;;;6251133;23;20494;-69
2021/10/26 05:11:33;;;;;;;18.37;16.27;;;9.80;99.90;;;;;;6249647;22;20439;-70
2021/10/26 05:14:00;;;;;;;17.07;15.43;;;9.80;99.90;;;;;;6250173;23;20418;-70
2021/10/26 05:16:28;;;;;;;19.17;16.37;;;9.80;99.90;;;;;;6249956;23;20915;-70
2021/10/26 05:18:59;;;;;;;20.90;16.30;;;9.80;99.90;;;;;;6250045;23;20411;-71
2021/10/26 05:21:26;;;;;;;18.93;16.47;;;9.90;99.90;;;;;;6250242;22;20429;-70
2021/10/26 05:23:52;;;;;;;20.17;17.33;;;9.90;99.90;;;;;;6250596;23;20414;-70
2021/10/26 05:26:21;;;;;;;19.97;16.67;;;9.90;99.90;;;;;;6251474;23;20417;-70
2021/10/26 05:28:49;;;;;;;16.80;15.07;;;9.90;99.90;;;;;;6250181;23;20470;-70
2021/10/26 05:31:16;;;;;;;17.67;15.70;;;10.00;99.90;;;;;;6249946;22;20438;-71
2021/10/26 05:33:43;;;;;;;16.43;14.73;;;10.00;99.90;;;;;;6250894;23;20904;-71
2021/10/26 05:36:10;;;;;;;19.50;16.10;;;10.00;99.90;;;;;;6264773;23;20407;-69
2021/10/26 05:38:37;;;;;;;19.33;17.20;;;9.90;99.90;;;;;;6249307;23;20415;-67
2021/10/26 05:41:04;;;;;;;18.20;16.50;;;9.90;99.90;;;;;;6250311;22;20426;-67
2021/10/26 05:43:32;;;;;;;18.20;16.30;;;9.90;99.90;;;;;;6250466;23;20411;-68
2021/10/26 05:45:59;;;;;;;17.63;15.93;;;9.80;99.90;;;;;;6250765;23;20410;-68
2021/10/26 05:48:26;;;;;;;20.03;17.77;;;9.80;99.90;;;;;;6249339;23;20411;-69
2021/10/26 05:50:53;;;;;;;15.43;13.90;;;9.70;99.90;;;;;;6249013;22;20736;-68
2021/10/26 05:53:19;;;;;;;21.07;17.60;;;9.70;99.90;;;;;;6249031;23;20422;-67
2021/10/26 05:55:46;;;;;;;18.87;16.93;;;9.90;99.90;;;;;;6250234;23;20399;-67
2021/10/26 05:58:13;;;;;;;15.00;13.10;;;10.40;99.90;;;;;;6248950;23;20468;-67
2021/10/26 06:00:42;;;;;;;14.57;13.00;;;10.70;99.90;;;;;;6248996;22;20449;-71
2021/10/26 06:03:09;;;;;;;17.37;14.47;;;10.80;99.90;;;;;;6251380;23;20856;-70
2021/10/26 06:05:38;;;;;;;19.37;15.20;;;10.70;99.90;;;;;;6261150;23;20470;-70
2021/10/26 06:08:05;;;;;;;17.40;15.70;;;10.80;99.90;;;;;;6250012;23;20442;-71
2021/10/26 06:10:33;;;;;;;17.47;15.67;;;10.70;99.90;;;;;;6270095;22;20427;-70
2021/10/26 06:13:04;;;;;;;17.93;16.03;;;10.60;99.90;;;;;;6261090;23;20508;-70
2021/10/26 06:15:31;;;;;;;19.40;15.70;;;10.50;99.90;;;;;;6251691;23;20858;-71
2021/10/26 06:17:59;;;;;;;19.37;16.00;;;10.40;99.90;;;;;;6255062;23;20411;-72
2021/10/26 06:20:26;;;;;;;18.33;16.43;;;10.40;99.90;;;;;;6264941;22;20775;-72
2021/10/26 06:22:53;;;;;;;21.47;16.00;;;10.30;99.90;;;;;;6250857;23;20406;-72
2021/10/26 06:25:20;;;;;;;18.93;16.93;;;10.30;99.90;;;;;;6249683;23;20749;-72
2021/10/26 06:27:46;;;;;;;20.57;16.10;;;10.20;99.90;;;;;;6249499;23;20414;-71
2021/10/26 06:30:13;;;;;;;19.80;17.80;;;10.20;99.90;;;;;;6251853;22;20414;-70
2021/10/26 06:32:41;;;;;;;20.53;18.07;;;10.10;99.90;;;;;;6255235;23;20438;-70
2021/10/26 06:35:09;;;;;;;21.43;17.10;;;10.10;99.90;;;;;;6251811;23;20468;-71
2021/10/26 06:37:39;;;;;;;18.23;15.67;;;10.10;99.90;;;;;;6252733;23;20433;-71
2021/10/26 06:40:07;;;;;;;19.93;15.00;;;10.10;99.90;;;;;;6248926;23;20751;-72
2021/10/26 06:42:34;;;;;;;17.70;16.00;;;10.20;99.90;;;;;;6248554;22;20427;-71
2021/10/26 06:45:00;;;;;;;20.17;16.57;;;10.20;99.90;;;;;;6249041;23;20810;-72
2021/10/26 06:47:27;;;;;;;24.20;16.37;;;10.20;99.90;;;;;;6248657;23;20418;-71
2021/10/26 06:49:54;;;;;;;20.50;17.37;;;10.20;99.90;;;;;;6248861;23;20445;-71
2021/10/26 06:52:22;;;;;;;19.33;16.33;;;10.20;99.90;;;;;;6248749;22;20441;-71
2021/10/26 06:54:50;;;;;;;17.13;15.30;;;10.00;99.90;;;;;;6248626;23;20417;-71
2021/10/26 06:57:19;;;;;;;20.23;15.20;;;10.10;99.90;;;;;;6248873;23;20731;-70
2021/10/26 06:59:46;;;;;;;16.73;15.03;;;10.20;99.90;;;;;;6249015;23;20411;-71
2021/10/26 07:02:12;;;;;;;16.50;14.80;;;10.30;99.90;;;;;;6248633;22;20461;-71
2021/10/26 07:04:39;;;;;;;16.53;14.93;;;10.30;99.90;;;;;;6249769;23;20915;-71
2021/10/26 07:07:06;;;;;;;15.87;14.30;;;10.40;99.90;;;;;;6269442;23;20416;-71
2021/10/26 07:09:34;;;;;;;19.83;15.03;;;10.40;99.90;;;;;;6251695;23;20410;-70
2021/10/26 07:12:01;;;;;;;17.07;15.37;;;10.50;99.90;;;;;;6248859;22;20435;-71
2021/10/26 07:14:27;;;;;;;18.33;16.37;;;10.50;99.90;;;;;;6248848;23;20415;-71
2021/10/26 07:16:54;;;;;;;19.53;16.70;;;10.60;99.90;;;;;;6249007;23;20876;-71
2021/10/26 07:19:21;;;;;;;18.90;15.63;;;10.60;99.90;;;;;;6248849;23;20777;-71
2021/10/26 07:21:47;;;;;;;17.53;15.70;;;10.80;99.90;;;;;;6249169;22;20431;-71
2021/10/26 07:24:14;;;;;;;19.53;15.57;;;11.00;99.90;;;;;;6248714;23;20433;-71
2021/10/26 07:26:43;;;;;;;17.87;14.90;;;11.40;99.90;;;;;;6248870;23;20418;-71
2021/10/26 07:29:10;;;;;;;17.13;14.43;;;11.80;99.90;;;;;;6248883;23;20495;-71
2021/10/26 07:31:36;;;;;;;21.43;13.73;;;12.10;99.90;;;;;;6248922;22;20437;-71
2021/10/26 07:34:03;;;;;;;21.67;14.17;;;12.50;99.90;;;;;;6248895;23;20421;-71
2021/10/26 07:36:33;;;;;;;16.87;13.80;;;12.80;99.90;;;;;;6248625;23;20411;-71
2021/10/26 07:39:03;;;;;;;15.43;13.83;;;13.00;99.90;;;;;;6249128;23;20411;-72
2021/10/26 07:41:30;;;;;;;14.93;13.43;;;13.30;99.90;;;;;;6247743;22;20431;-71
2021/10/26 07:43:58;;;;;;;16.07;14.50;;;13.60;99.90;;;;;;6253974;23;20433;-72
2021/10/26 07:46:24;;;;;;;17.53;15.43;;;13.60;99.90;;;;;;6250189;23;20411;-71
2021/10/26 07:48:51;;;;;;;16.30;14.43;;;13.70;99.90;;;;;;6248437;23;20926;-71
2021/10/26 07:51:18;;;;;;;16.67;14.97;;;13.90;99.90;;;;;;6248659;22;20466;-71
2021/10/26 07:53:45;;;;;;;17.27;15.43;;;14.00;99.90;;;;;;6264900;23;20426;-71
2021/10/26 07:56:11;;;;;;;16.23;14.53;;;13.90;99.90;;;;;;6265301;23;20407;-71
2021/10/26 07:58:39;;;;;;;17.27;15.40;;;13.70;99.90;;;;;;6263854;23;20438;-71
2021/10/26 08:01:07;;;;;;;20.60;15.63;;;13.60;99.90;;;;;;6272737;22;20423;-71
2021/10/26 08:03:34;;;;;;;18.60;16.60;;;13.40;99.90;;;;;;6269055;23;20470;-71
2021/10/26 08:06:03;;;;;;;18.50;15.27;;;13.50;99.90;;;;;;6249796;23;20426;-72
2021/10/26 08:08:30;;;;;;;17.23;15.50;;;13.40;99.90;;;;;;6254047;23;20478;-72
2021/10/26 08:10:57;;;;;;;17.40;15.70;;;13.50;99.90;;;;;;6270373;22;20799;-72
2021/10/26 08:13:24;;;;;;;19.30;15.93;;;13.60;99.90;;;;;;6257810;23;20442;-71
2021/10/26 08:15:51;;;;;;;18.73;16.70;;;13.70;99.90;;;;;;6248478;23;20399;-71
2021/10/26 08:18:19;;;;;;;18.63;16.67;;;13.90;99.90;;;;;;6248750;23;20478;-72
2021/10/26 08:20:48;;;;;;;16.33;14.30;;;14.10;99.90;;;;;;6268940;22;20427;-71
2021/10/26 08:23:15;;;;;;;20.70;15.70;;;13.90;99.90;;;;;;6266484;23;20399;-71
2021/10/26 08:25:46;;;;;;;17.87;15.60;;;14.10;99.90;;;;;;6271944;23;20466;-71
2021/10/26 08:28:15;;;;;;;16.73;14.97;;;14.30;99.90;;;;;;6259518;23;20395;-71
2021/10/26 08:30:47;;;;;;;16.63;14.70;;;14.50;99.90;;;;;;6248491;22;20430;-71
2021/10/26 08:33:23;;;;;;;18.70;15.27;;;15.00;99.90;;;;;;6258330;23;20956;-71
2021/10/26 08:35:51;;;;;;;15.07;13.57;;;15.70;99.90;;;;;;6247922;23;20867;-71
2021/10/26 08:38:18;;;;;;;17.40;14.53;;;16.30;99.90;;;;;;6247907;23;20411;-71
2021/10/26 08:40:47;;;;;;;24.13;14.70;;;16.80;99.90;;;;;;6247689;22;20431;-71
2021/10/26 08:43:16;;;;;;;14.17;12.90;;;17.90;99.90;;;;;;6247931;23;20892;-71
2021/10/26 08:45:47;;;;;;;14.40;12.87;;;19.30;99.90;;;;;;6250521;23;20411;-71
2021/10/26 08:48:20;;;;;;;14.83;12.23;;;20.80;99.90;;;;;;6250469;23;20399;-72
2021/10/26 08:50:47;;;;;;;13.40;12.10;;;22.00;99.90;;;;;;6247825;22;20513;-71
2021/10/26 08:53:16;;;;;;;17.53;12.23;;;22.30;99.90;;;;;;6247558;23;20434;-71
2021/10/26 08:55:44;;;;;;;13.60;12.40;;;22.20;99.60;;;;;;6247233;23;20913;-71
2021/10/26 08:58:12;;;;;;;14.67;13.27;;;21.10;99.90;;;;;;6247754;23;20411;-72
2021/10/26 09:00:39;;;;;;;14.40;13.03;;;20.30;99.90;;;;;;6246922;22;20485;-71
2021/10/26 09:03:18;;;;;;;14.63;13.13;;;19.80;99.90;;;;;;6246992;23;20391;-72
2021/10/26 09:05:47;;;;;;;16.00;11.77;;;19.40;99.90;;;;;;6247265;23;20422;-71
2021/10/26 09:08:15;;;;;;;13.80;12.30;;;19.50;99.90;;;;;;6246772;23;20973;-71
2021/10/26 09:10:42;;;;;;;13.53;12.13;;;19.40;99.90;;;;;;6247275;22;20480;-71
2021/10/26 09:18:42;;;;;;;12.60;11.40;;;20.00;99.90;;;;;;6247614;23;20382;-72
2021/10/26 09:21:27;;;;;;;12.50;11.30;;;20.30;99.90;;;;;;6246894;22;20430;-73
2021/10/26 09:23:57;;;;;;;13.33;12.00;;;20.80;99.90;;;;;;6246916;23;20391;-72
2021/10/26 09:26:25;;;;;;;12.93;11.60;;;20.90;99.90;;;;;;6247134;23;20395;-72
2021/10/26 09:28:54;;;;;;;14.00;11.27;;;20.60;99.90;;;;;;6247003;23;20446;-72
2021/10/26 09:31:27;;;;;;;12.80;11.50;;;20.20;99.90;;;;;;6246845;22;20431;-71
2021/10/26 09:34:02;;;;;;;13.60;11.47;;;20.10;99.90;;;;;;6247025;23;20811;-72
2021/10/26 09:36:31;;;;;;;11.23;10.13;;;20.00;99.90;;;;;;6247096;23;20747;-72
2021/10/26 09:39:10;;;;;;;11.53;10.50;;;20.60;99.90;;;;;;6247396;23;20446;-72
2021/10/26 09:41:38;;;;;;;10.53;9.53;;;21.40;99.90;;;;;;6247146;22;21037;-71
2021/10/26 09:44:10;;;;;;;11.10;10.00;;;21.50;99.90;;;;;;6247153;23;20407;-72
2021/10/26 09:46:37;;;;;;;10.00;9.00;;;21.20;99.90;;;;;;6246554;23;20410;-71
2021/10/26 09:49:04;;;;;;;10.20;9.20;;;20.90;99.90;;;;;;6247272;23;20579;-72
2021/10/26 09:51:33;;;;;;;11.97;10.00;;;20.50;99.90;;;;;;6248701;22;20430;-72
2021/10/26 09:54:00;;;;;;;10.23;9.23;;;20.30;99.90;;;;;;6247919;23;20487;-71
2021/10/26 09:56:28;;;;;;;10.33;8.87;;;21.20;99.90;;;;;;6247665;23;20914;-72
2021/10/26 09:59:14;;;;;;;10.53;9.37;;;22.80;99.90;;;;;;6250177;23;20419;-71
2021/10/26 10:01:52;;;;;;;10.67;9.77;;;24.50;97.50;;;;;;6255670;22;20474;-72
2021/10/26 10:04:25;;;;;;;10.13;9.10;;;24.80;94.10;;;;;;6248727;23;20456;-72
2021/10/26 10:06:52;;;;;;;8.87;7.97;;;24.50;94.40;;;;;;6249184;23;20422;-72
2021/10/26 10:09:23;;;;;;;6.30;5.70;;;23.90;94.50;;;;;;6249910;23;20411;-73
2021/10/26 10:12:00;;;;;;;7.77;7.10;;;23.40;94.90;;;;;;6249084;22;20436;-72
2021/10/26 10:14:27;;;;;;;8.83;7.97;;;22.80;95.20;;;;;;6268835;22;20410;-72
2021/10/26 10:16:54;;;;;;;9.43;7.17;;;22.30;96.30;;;;;;6249615;23;20414;-72
2021/10/26 10:19:22;;;;;;;7.43;6.40;;;21.70;97.40;;;;;;6248829;23;20410;-72
2021/10/26 10:21:51;;;;;;;7.70;7.00;;;21.10;98.90;;;;;;6249727;22;20438;-71
2021/10/26 10:24:19;;;;;;;8.00;7.20;;;20.70;99.90;;;;;;6249001;23;20781;-72
2021/10/26 10:26:51;;;;;;;9.07;8.27;;;20.10;99.90;;;;;;6248655;23;20414;-72
2021/10/26 10:29:21;;;;;;;8.33;7.63;;;19.70;99.90;;;;;;6248688;23;20402;-72
2021/10/26 10:31:50;;;;;;;8.57;7.67;;;19.50;99.90;;;;;;6248710;22;20434;-72
2021/10/26 10:34:21;;;;;;;6.80;6.10;;;19.30;99.90;;;;;;6248482;23;20481;-72
2021/10/26 10:36:52;;;;;;;6.80;5.90;;;19.90;99.90;;;;;;6249054;23;20410;-73
2021/10/26 10:39:23;;;;;;;9.60;5.80;;;20.20;99.90;;;;;;6248621;23;20394;-72
2021/10/26 10:41:51;;;;;;;4.80;4.23;;;20.40;99.90;;;;;;6248312;22;20430;-72
2021/10/26 10:44:39;;;;;;;3.93;3.67;;;20.60;99.90;;;;;;6248448;23;20456;-72
2021/10/26 10:47:11;;;;;;;4.83;4.07;;;20.90;99.90;;;;;;6248548;23;20792;-72
2021/10/26 10:49:51;;;;;;;4.03;3.53;;;20.90;99.90;;;;;;6248342;23;20870;-72
2021/10/26 10:52:28;;;;;;;4.63;3.60;;;20.60;99.90;;;;;;6248098;22;20437;-72
2021/10/26 10:54:56;;;;;;;4.30;3.90;;;20.20;99.90;;;;;;6248450;23;20395;-72
2021/10/26 10:57:27;;;;;;;4.90;4.20;;;20.00;99.90;;;;;;6248831;23;20411;-72
2021/10/26 10:59:58;;;;;;;3.73;3.47;;;19.90;99.90;;;;;;6248906;23;20486;-72
2021/10/26 11:02:26;;;;;;;5.13;4.20;;;19.70;99.90;;;;;;6248699;22;20481;-71
2021/10/26 11:04:55;;;;;;;4.00;3.60;;;19.70;99.90;;;;;;6247973;23;20919;-72
2021/10/26 11:07:54;;;;;;;4.20;3.80;;;19.70;99.90;;;;;;6248482;23;20411;-72
2021/10/26 11:10:21;;;;;;;4.17;3.80;;;19.70;99.90;;;;;;6249054;22;20411;-71
2021/10/26 11:12:51;;;;;;;4.73;3.60;;;19.50;99.90;;;;;;6249680;23;20819;-73
2021/10/26 11:15:42;;;;;;;4.40;3.73;;;19.40;99.90;;;;;;6249534;23;20896;-72
2021/10/26 11:18:08;;;;;;;4.50;4.10;;;19.20;99.90;;;;;;6248924;23;20395;-70
2021/10/26 11:20:49;;;;;;;6.57;4.20;;;19.10;99.90;;;;;;6248519;22;20434;-71
2021/10/26 11:23:36;;;;;;;5.40;4.40;;;18.90;99.90;;;;;;6248784;23;20427;-69
2021/10/26 11:26:12;;;;;;;5.50;4.37;;;18.90;99.90;;;;;;6252502;23;20411;-71
2021/10/26 11:28:47;;;;;;;5.90;4.27;;;19.00;99.90;;;;;;6248622;23;20399;-72
2021/10/26 11:31:23;;;;;;;5.40;4.90;;;18.70;99.90;;;;;;6248892;22;20437;-71
2021/10/26 11:34:05;;;;;;;5.63;4.77;;;18.80;99.90;;;;;;6250509;23;20422;-69
2021/10/26 11:36:33;;;;;;;4.90;4.50;;;18.70;99.90;;;;;;6248173;23;20726;-71
2021/10/26 11:39:04;;;;;;;7.30;5.07;;;18.70;99.90;;;;;;6248697;23;20418;-70
2021/10/26 11:41:34;;;;;;;5.80;5.20;;;18.40;99.90;;;;;;6248828;22;20430;-70
2021/10/26 11:44:02;;;;;;;5.67;5.00;;;18.30;99.90;;;;;;6248583;23;20407;-71
2021/10/26 11:46:34;;;;;;;6.37;5.07;;;18.20;99.90;;;;;;6250400;23;20415;-68
2021/10/26 11:49:05;;;;;;;7.53;5.37;;;18.10;99.90;;;;;;6259641;23;20395;-68
2021/10/26 11:51:34;;;;;;;4.80;4.00;;;18.10;99.90;;;;;;6255677;22;20438;-69
2021/10/26 11:54:04;;;;;;;4.50;4.10;;;18.20;99.90;;;;;;6250504;23;20511;-70
2021/10/26 11:56:34;;;;;;;6.37;5.30;;;18.20;99.90;;;;;;6268152;22;20417;-67
2021/10/26 11:59:03;;;;;;;8.20;5.07;;;18.40;99.90;;;;;;6272943;22;20391;-71
2021/10/26 12:01:40;;;;;;;6.90;4.63;;;18.30;99.90;;;;;;6265326;22;20431;-69
2021/10/26 12:04:07;;;;;;;7.13;4.90;;;18.50;99.90;;;;;;6253186;23;20387;-69
2021/10/26 12:06:35;;;;;;;7.83;5.13;;;18.30;99.90;;;;;;6247888;23;20411;-69
2021/10/26 12:09:05;;;;;;;8.50;4.73;;;18.40;99.90;;;;;;6248356;23;20489;-69
2021/10/26 12:11:33;;;;;;;5.80;4.00;;;18.40;99.90;;;;;;6247703;22;20431;-69
2021/10/26 12:14:20;;;;;;;4.80;4.23;;;18.30;99.90;;;;;;6250623;23;20430;-69
2021/10/26 12:17:09;;;;;;;4.90;4.10;;;18.20;99.90;;;;;;6250245;23;20418;-70
2021/10/26 12:19:37;;;;;;;6.03;3.90;;;18.00;99.90;;;;;;6247589;23;20443;-70
2021/10/26 12:22:04;;;;;;;6.50;3.73;;;18.10;99.90;;;;;;6261818;22;20488;-71
2021/10/26 12:24:34;;;;;;;3.20;3.00;;;18.20;99.90;;;;;;6256877;23;20410;-69
2021/10/26 12:27:05;;;;;;;3.97;3.03;;;18.20;99.90;;;;;;6247473;23;20422;-68
2021/10/26 12:29:33;;;;;;;4.43;3.33;;;18.30;99.90;;;;;;6247381;23;20861;-68
2021/10/26 12:32:01;;;;;;;4.03;3.57;;;18.40;99.90;;;;;;6247304;22;20430;-68
2021/10/26 12:34:32;;;;;;;5.20;3.30;;;18.60;99.90;;;;;;6247293;23;20438;-69
2021/10/26 12:37:23;;;;;;;2.97;2.70;;;18.70;99.90;;;;;;6247966;23;20469;-69
2021/10/26 12:39:54;;;;;;;5.63;3.50;;;18.90;99.90;;;;;;6247753;23;20852;-69
2021/10/26 12:42:29;;;;;;;4.20;3.80;;;19.20;99.90;;;;;;6249047;22;20467;-69
2021/10/26 12:44:56;;;;;;;7.37;3.77;;;19.30;99.90;;;;;;6250314;23;20440;-69
2021/10/26 12:47:23;;;;;;;3.90;2.93;;;19.60;99.90;;;;;;6247795;23;20418;-69
2021/10/26 12:49:51;;;;;;;5.90;2.70;;;19.70;99.90;;;;;;6246958;23;20914;-69
2021/10/26 12:52:18;;;;;;;2.30;2.10;;;20.00;99.90;;;;;;6247866;22;20457;-69
2021/10/26 12:54:46;;;;;;;2.03;1.67;;;19.90;99.90;;;;;;6248311;23;20429;-69
2021/10/26 12:57:13;;;;;;;5.07;1.93;;;19.60;99.90;;;;;;6247750;23;20411;-70
2021/10/26 12:59:40;;;;;;;2.67;1.90;;;19.60;99.90;;;;;;6247776;23;20410;-70
2021/10/26 13:02:09;;;;;;;3.07;2.10;;;19.50;99.90;;;;;;6246597;22;20775;-69
2021/10/26 13:04:38;;;;;;;1.80;1.70;;;19.30;99.90;;;;;;6247546;23;20413;-69
2021/10/26 13:07:08;;;;;;;2.40;1.80;;;19.30;99.90;;;;;;6258265;23;20406;-70
2021/10/26 13:09:37;;;;;;;3.70;2.70;;;19.10;99.90;;;;;;6260082;23;20407;-69
2021/10/26 13:12:09;;;;;;;3.40;2.00;;;18.70;99.90;;;;;;6256391;22;20434;-69
2021/10/26 13:14:40;;;;;;;5.13;2.33;;;18.60;99.90;;;;;;6247187;23;20450;-69
2021/10/26 13:17:26;;;;;;;2.50;2.30;;;18.60;99.90;;;;;;6247204;23;20403;-68
2021/10/26 13:20:18;;;;;;;2.50;2.30;;;18.10;99.90;;;;;;6247105;23;20406;-68
2021/10/26 13:23:05;;;;;;;3.53;2.50;;;18.00;99.90;;;;;;6247067;23;20774;-68
2021/10/26 13:25:37;;;;;;;2.10;2.00;;;17.90;99.90;;;;;;6247279;23;20395;-68
2021/10/26 13:28:05;;;;;;;5.20;2.33;;;17.80;99.90;;;;;;6247215;23;20398;-68
2021/10/26 13:30:33;;;;;;;2.20;2.00;;;17.70;99.90;;;;;;6246648;22;20407;-67
2021/10/26 13:33:00;;;;;;;3.27;2.50;;;17.70;99.90;;;;;;6246998;23;20407;-68
2021/10/26 13:35:27;;;;;;;2.60;2.23;;;17.60;99.90;;;;;;6247075;23;20434;-66
2021/10/26 13:37:54;;;;;;;6.37;2.43;;;17.60;99.90;;;;;;6247629;23;20434;-66
2021/10/26 13:40:22;;;;;;;4.67;2.33;;;17.60;99.90;;;;;;6247207;22;20411;-67
2021/10/26 13:42:49;;;;;;;3.57;2.53;;;17.50;99.90;;;;;;6247053;23;20411;-66
2021/10/26 13:45:16;;;;;;;2.30;1.50;;;17.40;99.90;;;;;;6246993;23;20492;-66
2021/10/26 13:47:45;;;;;;;2.20;1.83;;;17.30;99.90;;;;;;6248172;23;20445;-65
2021/10/26 13:50:12;;;;;;;1.80;1.70;;;17.30;99.90;;;;;;6247467;23;20933;-65
2021/10/26 13:52:39;;;;;;;1.57;1.47;;;17.10;99.90;;;;;;6250663;22;20437;-66
2021/10/26 13:55:07;;;;;;;2.70;2.23;;;17.20;99.90;;;;;;6249593;23;20432;-65
2021/10/26 13:57:37;;;;;;;3.93;2.07;;;17.20;99.90;;;;;;6247390;23;20513;-66
2021/10/26 14:00:09;;;;;;;3.33;2.00;;;17.30;99.90;;;;;;6247331;23;20395;-66
2021/10/26 14:02:37;;;;;;;5.50;1.87;;;17.30;99.90;;;;;;6263934;22;20486;-66
2021/10/26 14:05:05;;;;;;;3.23;1.87;;;17.40;99.90;;;;;;6248511;23;20410;-65
2021/10/26 14:07:32;;;;;;;2.10;1.90;;;17.50;99.90;;;;;;6246415;23;20906;-65
2021/10/26 14:09:58;;;;;;;3.03;2.10;;;17.70;99.90;;;;;;6246891;23;20406;-65
2021/10/26 14:12:25;;;;;;;2.13;1.87;;;18.10;99.90;;;;;;6246869;22;20434;-65
2021/10/26 14:14:53;;;;;;;4.27;2.10;;;18.20;99.90;;;;;;6261003;23;20431;-65
2021/10/26 14:17:20;;;;;;;3.27;1.60;;;18.40;99.90;;;;;;6258881;23;20946;-67
2021/10/26 14:19:47;;;;;;;3.13;1.80;;;18.70;99.90;;;;;;6248086;23;20410;-65
2021/10/26 14:22:13;;;;;;;1.90;1.70;;;18.60;99.90;;;;;;6257158;22;20445;-65
2021/10/26 14:24:40;;;;;;;3.07;1.83;;;18.60;99.90;;;;;;6250228;23;20403;-65
2021/10/26 14:27:07;;;;;;;3.57;2.30;;;18.40;99.90;;;;;;6247122;23;20918;-65
2021/10/26 14:29:33;;;;;;;4.63;2.40;;;18.30;99.90;;;;;;6249400;23;20417;-67
2021/10/26 14:32:03;;;;;;;2.80;2.13;;;18.40;99.90;;;;;;6251768;22;20438;-65
2021/10/26 14:34:30;;;;;;;2.20;2.00;;;18.50;99.90;;;;;;6251342;23;20500;-66
2021/10/26 14:37:04;;;;;;;2.43;2.10;;;18.60;99.90;;;;;;6247748;23;20747;-65
2021/10/26 14:39:54;;;;;;;2.50;1.80;;;18.50;99.90;;;;;;6248189;23;20391;-66
2021/10/26 14:42:40;;;;;;;2.37;2.10;;;18.40;99.90;;;;;;6247919;22;20751;-65
2021/10/26 14:53:44;;;;;;;1.73;1.60;;;18.00;99.90;;;;;;6250274;23;20379;-65
2021/10/26 14:56:11;;;;;;;2.30;1.90;;;17.80;99.90;;;;;;6249555;23;20870;-66
2021/10/26 14:58:39;;;;;;;2.13;1.93;;;17.60;99.90;;;;;;6249330;23;20746;-65
2021/10/26 15:01:06;;;;;;;2.13;1.97;;;17.50;99.90;;;;;;6248899;22;20496;-65
2021/10/26 15:03:36;;;;;;;2.37;2.17;;;17.40;99.90;;;;;;6249067;23;20410;-66
2021/10/26 15:06:02;;;;;;;4.57;2.40;;;17.20;99.90;;;;;;6249390;23;20410;-66
2021/10/26 15:08:32;;;;;;;4.38;2.28;;;17.10;99.90;;;;;;6248243;23;20418;-65
2021/10/26 15:11:11;;;;;;;3.30;2.40;;;17.00;99.90;;;;;;6259036;22;20208;-66
2021/10/26 15:13:42;;;;;;;318.03;19.13;;;17.00;99.90;;;;;;6249932;23;20398;-67
2021/10/26 15:16:09;;;;;;;120.47;10.40;;;17.00;99.90;;;;;;6249511;23;20391;-66
2021/10/26 15:18:37;;;;;;;173.53;14.80;;;17.00;99.90;;;;;;6259548;23;20486;-67
2021/10/26 15:21:10;;;;;;;37.57;5.37;;;16.90;99.90;;;;;;6252174;22;20426;-67
2021/10/26 15:23:55;;;;;;;102.20;8.57;;;16.80;99.90;;;;;;6250386;23;20696;-67
2021/10/26 15:33:10;;;;;;;95.43;8.43;;;16.70;99.90;;;;;;6249299;23;20722;-67
2021/10/26 15:34:42;;;;;;;23.93;3.57;;;16.30;99.90;;;;;;6250487;23;20941;-66
2021/10/26 15:37:09;;;;;;;125.63;9.00;;;16.20;99.90;;;;;;6251167;23;20411;-67
2021/10/26 15:39:36;;;;;;;9.07;3.10;;;16.10;99.90;;;;;;6264817;23;20411;-67
2021/10/26 15:42:04;;;;;;;71.93;6.63;;;16.00;99.90;;;;;;6268454;22;20492;-67
2021/10/26 15:44:31;;;;;;;15.80;3.80;;;15.90;99.90;;;;;;6269106;23;20471;-67
2021/10/26 15:46:58;;;;;;;2.90;2.63;;;15.90;99.90;;;;;;6257005;23;20433;-66
2021/10/26 15:49:24;;;;;;;13.13;3.70;;;15.80;99.90;;;;;;6248524;23;20892;-66
2021/10/26 15:51:52;;;;;;;3.53;2.77;;;15.80;99.90;;;;;;6260042;22;20457;-66
2021/10/26 15:54:19;;;;;;;6.17;4.03;;;15.70;99.90;;;;;;6273206;23;20470;-66
2021/10/26 15:56:46;;;;;;;4.70;3.00;;;15.60;99.90;;;;;;6275437;23;20391;-66
2021/10/26 15:59:12;;;;;;;46.73;4.87;;;15.50;99.90;;;;;;6273595;23;20406;-66
2021/10/26 16:01:40;;;;;;;348.23;22.03;;;15.50;99.90;;;;;;6260015;22;20442;-65
2021/10/26 16:04:07;;;;;;;32.23;4.67;;;15.40;99.90;;;;;;6250414;23;20498;-65
2021/10/26 16:06:34;;;;;;;19.03;3.80;;;15.30;99.90;;;;;;6250413;23;20445;-66
2021/10/26 16:09:04;;;;;;;23.90;4.70;;;15.30;99.90;;;;;;6249505;23;20418;-66
2021/10/26 16:11:33;;;;;;;13.20;3.73;;;15.10;99.90;;;;;;6249213;22;20437;-65
2021/10/26 16:14:03;;;;;;;8.53;3.53;;;15.10;99.90;;;;;;6262228;23;20427;-68
2021/10/26 16:16:35;;;;;;;10.73;3.70;;;15.00;99.90;;;;;;6249649;23;20395;-65
2021/10/26 16:19:02;;;;;;;5.47;3.10;;;14.90;99.90;;;;;;6248503;23;20402;-65
2021/10/26 16:21:29;;;;;;;27.53;4.37;;;14.90;99.90;;;;;;6248494;22;20431;-67
2021/10/26 16:23:56;;;;;;;20.30;3.40;;;14.80;99.90;;;;;;6248531;23;20900;-65
2021/10/26 16:26:24;;;;;;;3.80;3.10;;;14.80;99.90;;;;;;6248348;23;20410;-65
2021/10/26 16:28:51;;;;;;;6.10;3.97;;;14.70;99.90;;;;;;6250727;23;20427;-65
2021/10/26 16:31:19;;;;;;;5.57;3.80;;;14.70;99.90;;;;;;6248179;22;20427;-66
2021/10/26 16:33:54;;;;;;;5.10;3.90;;;14.60;99.90;;;;;;6247747;23;20411;-65
2021/10/26 16:36:23;;;;;;;5.90;4.13;;;14.50;99.90;;;;;;6250609;23;20418;-64
2021/10/26 16:38:50;;;;;;;4.90;4.40;;;14.40;99.90;;;;;;6259925;23;20465;-65
2021/10/26 16:41:17;;;;;;;4.37;4.07;;;14.40;99.90;;;;;;6263800;22;20494;-66
2021/10/26 16:43:48;;;;;;;6.97;4.20;;;14.30;99.90;;;;;;6261658;23;20407;-66
2021/10/26 16:46:30;;;;;;;4.60;4.20;;;14.20;99.90;;;;;;6248800;23;20391;-66
2021/10/26 16:48:57;;;;;;;7.40;4.30;;;14.10;99.90;;;;;;6249515;23;20394;-66
2021/10/26 16:51:24;;;;;;;4.30;3.60;;;14.10;99.90;;;;;;6250913;22;20969;-65
2021/10/26 16:53:53;;;;;;;5.57;3.93;;;14.00;99.90;;;;;;6249093;23;20410;-66
2021/10/26 16:56:21;;;;;;;4.70;4.00;;;14.00;99.90;;;;;;6247833;23;20423;-65
2021/10/26 16:58:50;;;;;;;8.03;3.63;;;13.90;99.90;;;;;;6248426;23;20501;-65
2021/10/26 17:01:24;;;;;;;3.50;3.30;;;13.80;99.90;;;;;;6252111;22;20450;-70
2021/10/26 17:03:51;;;;;;;4.20;2.93;;;13.80;99.90;;;;;;6248812;23;20859;-65
2021/10/26 17:06:19;;;;;;;3.90;3.60;;;13.70;99.90;;;;;;6247733;23;20396;-65
2021/10/26 17:08:46;;;;;;;4.77;3.50;;;13.70;99.90;;;;;;6248170;23;20418;-66
2021/10/26 17:11:14;;;;;;;5.97;3.23;;;13.70;99.90;;;;;;6247912;22;20435;-65